الصفحة الرئيسية
METAR-TAF:

METAR-TAF

مطار :

Casa Grande, أريزونا, الولايات المتحدة

دائرة عرض: 32-57N, خط طول: 111-46W, ارتفاع: 446 متر

مراقبة الطقس الحالي

تاريخ ووقت الإصدار 1ساعة و 1 دقيقة قبل الساعة 03:56UTC
ريح 6 عقدة من الشرق
درجة الحرارة 12°درجة مئوية
الرطوبة 88%
ضغط 1018 hPa
الرؤية: 16.1 كم
غيوم قليلة على ارتفاع 4700 قدم
غيوم مفككة على ارتفاع 6000 قدم
ملبد بالغيوم على ارتفاع 8000 قدم
مطر خفيف

METAR: KCGZ 220356Z AUTO 08006KT 10SM -RA FEW047 BKN060 OVC080 12/10 A3006 RMK AO2 SLP179 P0003 T01170100

زمن: 21:57 (04:57 UTC)


TAF: مفقودة

أرصاد الطقس والتوقعات من أكثر من 4000 مطار (تقارير الطقس للمطار METAR والتنبؤ بالطقس بالمطارTAF).

المحطات المتاحة هي النقط الصفراء والحمراء على الخريطة.

حرك المؤشر فوق النقطة لمعرفة اسم المحطة.

ثم انقر لمعرفة أرصاد وتوقعات الطقس.

لتغيير الخارطة: اضغط على الأزرار الخضراء مع رمز الصليب الأسود للتكبير. على الزر الأخضر مع شرطة للتصغير، أو على الأسهم الخضراء للخرائط المجاورة.


METAR-TAF: